Time;durP1;ratioP1;P1;durP2;ratioP2;P2;SDS_P1;SDS_P2;PMS_P1;PMS_P2;Temp;Humidity;BMP_temperature;BMP_pressure;BME280_temperature;BME280_humidity;BME280_pressure;Samples;Min_cycle;Max_cycle;Signal;HPM_P1;HPM_P2
2022/03/23 00:02:07;;;;;;;12.40;11.20;;;;;;;7.59;45.20;102014.13;5043463;28;20202;-81
2022/03/23 00:04:34;;;;;;;12.43;11.43;;;;;;;7.64;46.13;101991.69;5050927;28;20282;-82
2022/03/23 00:07:01;;;;;;;13.03;11.60;;;;;;;7.64;45.84;101988.22;5047003;28;20627;-81
2022/03/23 00:09:28;;;;;;;13.33;11.07;;;;;;;7.63;44.22;101997.75;5046753;28;20202;-82
2022/03/23 00:11:59;;;;;;;12.73;11.53;;;;;;;7.67;43.15;102035.03;5047749;28;20669;-82
2022/03/23 00:14:26;;;;;;;12.47;11.27;;;;;;;7.67;43.22;102048.03;5045877;28;20567;-82
2022/03/23 00:16:53;;;;;;;11.70;10.57;;;;;;;7.69;42.21;102061.94;5046966;28;20663;-81
2022/03/23 00:19:19;;;;;;;12.53;11.47;;;;;;;7.63;41.20;102096.50;5047607;28;20305;-82
2022/03/23 00:21:45;;;;;;;13.20;12.07;;;;;;;7.48;41.56;102125.63;5045797;28;20197;-84
2022/03/23 00:24:13;;;;;;;14.23;12.70;;;;;;;7.53;42.55;102124.00;5045305;28;20205;-82
2022/03/23 00:26:39;;;;;;;12.80;11.70;;;;;;;7.58;44.35;102085.13;5044043;28;20268;-80
2022/03/23 00:29:06;;;;;;;13.37;11.97;;;;;;;7.58;44.85;102037.47;5045619;28;20200;-82
2022/03/23 00:31:35;;;;;;;15.17;12.77;;;;;;;7.54;46.12;102002.75;5046217;28;20202;-81
2022/03/23 00:34:02;;;;;;;13.20;12.07;;;;;;;7.52;44.91;101986.25;5043742;28;20198;-81
2022/03/23 00:36:28;;;;;;;13.47;12.17;;;;;;;7.49;45.46;101987.09;5045935;28;20222;-82
2022/03/23 00:38:59;;;;;;;12.80;11.63;;;;;;;7.47;44.96;102003.47;5046807;28;20204;-82
2022/03/23 00:41:34;;;;;;;12.77;11.77;;;;;;;7.43;44.46;102006.84;5045339;28;20216;-82
2022/03/23 00:44:01;;;;;;;12.33;11.30;;;;;;;7.36;44.86;102016.28;5043850;28;20232;-80
2022/03/23 00:46:33;;;;;;;13.93;12.00;;;;;;;7.39;44.69;102011.13;5045630;28;20197;-80
2022/03/23 00:49:00;;;;;;;14.13;11.63;;;;;;;7.39;44.56;102015.44;5047168;28;20209;-81
2022/03/23 00:51:27;;;;;;;14.13;12.93;;;;;;;7.20;43.79;102035.84;5049174;28;20209;-82
2022/03/23 00:53:54;;;;;;;14.27;13.00;;;;;;;6.93;44.79;102042.19;5045262;28;20200;-82
2022/03/23 00:56:21;;;;;;;14.77;13.37;;;;;;;6.88;46.07;102019.59;5047559;28;20275;-82
2022/03/23 00:58:52;;;;;;;14.67;13.43;;;;;;;6.85;45.79;101998.75;5046905;28;20596;-81
2022/03/23 01:01:20;;;;;;;15.87;14.37;;;;;;;6.84;45.94;101990.13;5046273;28;20209;-81
2022/03/23 01:03:46;;;;;;;17.13;15.33;;;;;;;6.77;46.64;101970.03;5046949;28;20646;-81
2022/03/23 01:06:13;;;;;;;17.10;15.60;;;;;;;6.78;47.78;101942.38;5045900;28;20194;-81
2022/03/23 01:08:40;;;;;;;17.50;15.80;;;;;;;6.76;47.99;101931.97;5044233;28;20219;-81
2022/03/23 01:11:06;;;;;;;17.70;15.77;;;;;;;6.79;47.95;101903.47;5045583;28;20204;-82
2022/03/23 01:13:33;;;;;;;18.00;16.37;;;;;;;6.78;47.73;101901.75;5045427;28;20236;-81
2022/03/23 01:16:00;;;;;;;17.17;15.27;;;;;;;6.72;48.61;101897.31;5051383;28;20197;-81
2022/03/23 01:18:27;;;;;;;16.97;14.43;;;;;;;6.71;47.83;101892.94;5055010;28;20882;-82
2022/03/23 01:20:53;;;;;;;16.97;15.40;;;;;;;6.69;47.38;101902.41;5054091;28;20209;-80
2022/03/23 01:23:22;;;;;;;16.20;14.70;;;;;;;6.70;47.91;101908.47;5038299;28;20758;-80
2022/03/23 01:25:54;;;;;;;16.23;14.83;;;;;;;6.67;47.83;101898.91;5034622;28;20205;-81
2022/03/23 01:28:22;;;;;;;16.07;14.57;;;;;;;6.64;48.15;101887.59;5035023;28;20265;-81
2022/03/23 01:30:49;;;;;;;15.13;13.77;;;;;;;6.60;47.54;101909.13;5034677;28;20223;-80
2022/03/23 01:33:17;;;;;;;16.07;13.73;;;;;;;6.59;47.22;101915.19;5036976;28;20672;-81
2022/03/23 01:35:46;;;;;;;12.43;11.47;;;;;;;6.54;47.24;101921.16;5038410;28;20275;-80
2022/03/23 01:38:12;;;;;;;15.33;12.53;;;;;;;6.55;47.71;101916.81;5038994;28;20230;-82
2022/03/23 01:40:43;;;;;;;13.90;12.60;;;;;;;6.50;47.93;101916.72;5039312;28;20267;-80
2022/03/23 01:43:14;;;;;;;13.63;12.33;;;;;;;6.48;48.29;101904.56;5038599;28;20229;-82
2022/03/23 01:45:40;;;;;;;12.93;11.73;;;;;;;6.33;48.57;101893.00;5038452;28;20215;-81
2022/03/23 01:48:06;;;;;;;12.63;11.43;;;;;;;6.29;47.90;101888.59;5038620;28;20602;-81
2022/03/23 01:50:36;;;;;;;12.80;11.60;;;;;;;6.29;47.55;101903.28;5055036;28;20214;-81
2022/03/23 01:53:06;;;;;;;14.70;13.37;;;;;;;6.23;47.11;101918.72;5044056;28;20206;-81
2022/03/23 01:55:39;;;;;;;13.63;12.37;;;;;;;6.21;47.57;101920.41;5039255;28;20209;-81
2022/03/23 01:58:10;;;;;;;13.53;12.43;;;;;;;6.19;47.54;101920.34;5038276;28;20711;-81
2022/03/23 02:00:38;;;;;;;13.50;12.20;;;;;;;6.22;48.47;101901.38;5038566;28;20283;-82
2022/03/23 02:03:04;;;;;;;15.00;13.60;;;;;;;6.09;49.50;101870.00;5038989;28;20604;-80
2022/03/23 02:05:30;;;;;;;14.17;12.97;;;;;;;6.09;48.46;101867.41;5038296;28;20198;-80
2022/03/23 02:07:58;;;;;;;16.13;14.70;;;;;;;6.05;47.94;101875.09;5038828;28;20276;-81
2022/03/23 02:10:28;;;;;;;15.80;14.23;;;;;;;6.09;48.45;101877.78;5039089;28;20214;-81
2022/03/23 02:12:54;;;;;;;15.80;14.40;;;;;;;6.06;48.68;101875.09;5038260;28;20256;-80
2022/03/23 02:15:23;;;;;;;16.40;14.90;;;;;;;6.10;47.75;101883.84;5037711;28;20209;-81
2022/03/23 02:17:53;;;;;;;17.87;15.50;;;;;;;5.65;49.71;101874.09;5037154;28;20260;-80
2022/03/23 02:20:22;;;;;;;16.33;14.73;;;;;;;5.46;49.85;101844.31;5053071;28;20209;-81
2022/03/23 02:22:50;;;;;;;16.40;14.77;;;;;;;5.55;49.77;101816.03;5058003;28;20742;-82
2022/03/23 02:25:22;;;;;;;16.17;14.67;;;;;;;5.56;49.63;101823.81;5058595;28;20220;-81
2022/03/23 02:27:52;;;;;;;16.77;15.20;;;;;;;5.67;49.58;101813.75;5058414;28;20312;-81
2022/03/23 02:30:21;;;;;;;16.87;15.27;;;;;;;5.72;49.91;101817.28;5056607;28;20212;-82
2022/03/23 02:32:48;;;;;;;16.50;14.80;;;;;;;5.74;50.51;101812.16;5057687;28;20689;-81
2022/03/23 02:35:15;;;;;;;16.67;15.17;;;;;;;5.74;50.76;101799.19;5057162;28;20205;-81
2022/03/23 02:37:47;;;;;;;19.17;16.20;;;;;;;5.67;51.56;101782.66;5056638;28;20279;-80
2022/03/23 02:40:15;;;;;;;17.20;15.63;;;;;;;5.63;51.55;101754.94;5057322;28;20282;-81
2022/03/23 02:42:46;;;;;;;16.37;14.97;;;;;;;5.62;51.67;101747.13;5057348;28;20262;-82
2022/03/23 02:45:17;;;;;;;15.40;14.00;;;;;;;5.64;50.91;101750.63;5056392;28;20263;-81
2022/03/23 02:47:50;;;;;;;14.10;12.80;;;;;;;5.66;50.68;101762.75;5057258;28;20229;-81
2022/03/23 02:50:18;;;;;;;14.70;13.30;;;;;;;5.58;51.68;101765.16;5056712;28;20224;-81
2022/03/23 03:04:01;;;;;;;12.80;11.37;;;;;;;5.11;53.51;101696.75;5036064;28;20269;-81
2022/03/23 03:06:32;;;;;;;13.73;11.90;;;;;;;5.20;52.62;101689.22;5036509;28;20267;-81
2022/03/23 03:09:00;;;;;;;13.47;12.37;;;;;;;5.22;52.66;101703.06;5036609;28;20639;-81
2022/03/23 03:11:29;;;;;;;12.73;11.67;;;;;;;5.05;54.53;101675.91;5037212;28;20212;-82
2022/03/23 03:13:56;;;;;;;13.70;12.60;;;;;;;5.01;54.38;101653.38;5036691;28;20208;-82
2022/03/23 03:16:22;;;;;;;14.30;13.00;;;;;;;5.08;53.66;101658.75;5036646;28;20242;-81
2022/03/23 03:18:51;;;;;;;14.73;13.27;;;;;;;5.14;53.22;101671.81;5039186;28;20290;-82
2022/03/23 03:21:18;;;;;;;13.83;12.53;;;;;;;5.16;52.70;101685.66;5056447;28;20197;-79
2022/03/23 03:23:47;;;;;;;14.47;13.07;;;;;;;5.16;51.98;101703.78;5055587;28;20639;-80
2022/03/23 03:26:16;;;;;;;13.53;12.33;;;;;;;5.17;52.06;101723.66;5056217;28;20215;-81
2022/03/23 03:28:44;;;;;;;12.80;11.60;;;;;;;5.23;52.54;101712.56;5056507;28;20799;-80
2022/03/23 03:31:13;;;;;;;13.90;12.70;;;;;;;5.21;52.54;101710.78;5056877;28;20207;-82
2022/03/23 03:33:45;;;;;;;12.93;11.73;;;;;;;5.17;51.63;101740.88;5055310;28;20673;-82
2022/03/23 03:36:15;;;;;;;13.23;12.03;;;;;;;5.23;51.35;101753.09;5056062;28;20193;-82
2022/03/23 03:38:43;;;;;;;12.80;11.70;;;;;;;5.22;50.88;101772.09;5055934;28;20240;-81
2022/03/23 03:41:14;;;;;;;13.60;12.30;;;;;;;5.02;52.17;101767.28;5055836;28;20631;-80
2022/03/23 03:43:41;;;;;;;13.57;12.17;;;;;;;5.04;52.46;101738.84;5055991;28;20612;-81
2022/03/23 03:46:10;;;;;;;13.50;12.20;;;;;;;5.10;51.64;101742.47;5055678;28;20215;-81
2022/03/23 03:48:37;;;;;;;14.37;13.07;;;;;;;5.06;51.68;101765.66;5055852;28;20229;-81
2022/03/23 03:51:10;;;;;;;14.30;13.10;;;;;;;4.98;51.56;101763.72;5054590;28;20254;-81
2022/03/23 03:53:39;;;;;;;15.23;13.80;;;;;;;4.88;51.71;101758.31;5052621;28;20245;-81
2022/03/23 03:56:09;;;;;;;16.90;13.27;;;;;;;4.89;52.16;101747.97;5035034;28;20271;-80
2022/03/23 03:58:38;;;;;;;15.47;13.97;;;;;;;4.97;52.00;101743.88;5035233;28;20879;-80
2022/03/23 04:01:04;;;;;;;15.43;14.10;;;;;;;4.91;52.68;101745.44;5035021;28;20278;-81
2022/03/23 04:03:33;;;;;;;16.10;14.17;;;;;;;4.86;52.62;101734.97;5035822;28;20213;-82
2022/03/23 04:05:59;;;;;;;15.60;14.30;;;;;;;4.84;52.89;101736.66;5042239;28;20208;-80
2022/03/23 04:08:25;;;;;;;16.07;14.37;;;;;;;4.84;52.51;101730.59;5054611;28;20232;-81
2022/03/23 04:10:52;;;;;;;16.10;14.80;;;;;;;4.83;52.52;101736.59;5042554;28;20256;-82
2022/03/23 04:13:18;;;;;;;16.37;14.87;;;;;;;4.80;52.71;101732.22;5034913;28;20737;-81
2022/03/23 04:15:45;;;;;;;17.40;13.90;;;;;;;4.80;52.73;101728.75;5035669;28;20300;-82
2022/03/23 04:18:11;;;;;;;22.20;16.00;;;;;;;4.76;53.09;101726.09;5035620;28;20280;-80
2022/03/23 04:20:39;;;;;;;16.00;14.63;;;;;;;4.77;52.63;101726.97;5035720;28;20737;-81
2022/03/23 04:23:08;;;;;;;16.07;14.47;;;;;;;4.74;53.02;101729.50;5035102;28;20748;-80
2022/03/23 04:25:39;;;;;;;15.63;14.23;;;;;;;4.72;52.91;101729.44;5035078;28;20208;-81
2022/03/23 04:28:12;;;;;;;16.10;14.73;;;;;;;4.71;53.58;101716.47;5034793;28;20282;-81
2022/03/23 04:30:44;;;;;;;16.87;15.20;;;;;;;4.69;53.38;101723.31;5035459;28;20192;-82
2022/03/23 04:33:12;;;;;;;15.40;14.10;;;;;;;4.68;53.99;101719.00;5035177;28;20245;-81
2022/03/23 04:35:47;;;;;;;15.43;13.93;;;;;;;4.56;52.90;101725.59;5034873;28;20213;-81
2022/03/23 04:38:17;;;;;;;14.27;13.07;;;;;;;4.54;53.32;101731.56;5043023;28;20280;-82
2022/03/23 04:40:45;;;;;;;14.60;13.20;;;;;;;4.54;53.13;101741.91;5054699;28;20255;-81
2022/03/23 04:43:16;;;;;;;16.43;14.87;;;;;;;4.51;52.94;101734.91;5055442;28;20210;-80
2022/03/23 04:45:42;;;;;;;14.93;13.53;;;;;;;4.32;54.24;101719.72;5054622;28;20232;-81
2022/03/23 04:48:08;;;;;;;15.67;14.07;;;;;;;4.19;54.99;101710.78;5055312;28;20228;-80
2022/03/23 04:50:42;;;;;;;14.57;13.20;;;;;;;4.17;54.13;101690.06;5054127;28;20213;-81
2022/03/23 04:53:09;;;;;;;14.17;12.87;;;;;;;4.22;53.32;101713.44;5054212;28;20275;-81
2022/03/23 04:55:38;;;;;;;14.53;13.30;;;;;;;4.25;53.12;101733.34;5054090;28;20281;-82
2022/03/23 04:58:12;;;;;;;14.40;12.90;;;;;;;4.21;53.75;101732.38;5054467;28;20286;-82
2022/03/23 05:00:42;;;;;;;14.43;12.93;;;;;;;4.18;53.99;101732.28;5054820;28;20186;-82
2022/03/23 05:03:13;;;;;;;14.23;13.03;;;;;;;4.21;54.48;101728.91;5054912;28;20197;-81
2022/03/23 05:05:43;;;;;;;14.00;12.80;;;;;;;3.98;55.85;101703.28;5054157;28;20729;-82
2022/03/23 05:08:19;;;;;;;14.07;12.77;;;;;;;4.02;55.07;101693.94;5057281;28;20286;-82
2022/03/23 05:10:48;;;;;;;16.87;13.77;;;;;;;4.03;55.15;101703.44;5039137;28;20220;-80
2022/03/23 05:13:21;;;;;;;15.97;13.97;;;;;;;3.87;56.51;101671.13;5039649;28;20300;-81
2022/03/23 05:15:52;;;;;;;14.17;12.97;;;;;;;3.74;57.79;101634.59;5038356;28;20223;-81
2022/03/23 05:18:22;;;;;;;16.67;14.87;;;;;;;3.58;57.28;101633.28;5037584;28;20229;-81
2022/03/23 05:20:49;;;;;;;14.03;12.87;;;;;;;3.48;58.08;101617.50;5038966;28;20193;-80
2022/03/23 05:23:23;;;;;;;13.47;12.27;;;;;;;3.48;58.17;101597.72;5038083;28;20643;-82
2022/03/23 05:25:56;;;;;;;14.00;12.60;;;;;;;3.53;57.90;101608.19;5038056;28;20200;-82
2022/03/23 05:28:28;;;;;;;14.10;12.90;;;;;;;3.48;58.65;101584.81;5038573;28;20229;-81
2022/03/23 05:30:58;;;;;;;15.03;13.73;;;;;;;3.49;59.26;101580.53;5038706;28;20247;-80
2022/03/23 05:33:30;;;;;;;15.77;14.27;;;;;;;3.41;59.70;101567.44;5039798;28;20275;-81
2022/03/23 05:35:58;;;;;;;14.80;13.33;;;;;;;3.39;59.43;101561.34;5038503;28;20192;-81
2022/03/23 05:38:32;;;;;;;15.27;13.97;;;;;;;3.36;60.28;101549.22;5048215;28;20248;-81
2022/03/23 05:41:04;;;;;;;14.93;13.43;;;;;;;3.47;59.58;101544.38;5059977;28;20222;-81
2022/03/23 05:43:36;;;;;;;16.37;14.87;;;;;;;3.52;60.51;101539.31;5058742;28;20209;-81
2022/03/23 05:46:06;;;;;;;16.27;14.57;;;;;;;3.52;60.48;101524.69;5058224;28;20209;-81
2022/03/23 05:48:38;;;;;;;16.27;14.87;;;;;;;3.47;61.64;101508.22;5058744;28;20231;-82
2022/03/23 05:51:06;;;;;;;18.07;15.23;;;;;;;3.54;60.51;101507.56;5058576;28;20217;-81
2022/03/23 05:53:42;;;;;;;16.80;15.03;;;;;;;3.53;59.79;101525.59;5059621;28;20215;-82
2022/03/23 05:56:08;;;;;;;15.87;14.47;;;;;;;3.54;61.23;101530.78;5057800;28;20261;-82
2022/03/23 05:58:41;;;;;;;16.37;14.77;;;;;;;3.47;60.41;101530.56;5058488;28;20251;-82
2022/03/23 06:01:10;;;;;;;16.73;15.20;;;;;;;3.33;60.58;101531.06;5058191;28;20235;-80
2022/03/23 06:03:40;;;;;;;15.57;14.27;;;;;;;3.41;60.86;101530.41;5057706;28;20229;-82
2022/03/23 06:06:09;;;;;;;16.70;15.10;;;;;;;3.35;59.93;101550.06;5058825;28;20621;-82
2022/03/23 06:08:37;;;;;;;15.87;14.33;;;;;;;3.40;60.51;101550.19;5057818;28;20330;-82
2022/03/23 06:11:03;;;;;;;15.90;14.40;;;;;;;3.49;60.13;101545.28;5057153;28;20292;-81
2022/03/23 06:13:37;;;;;;;16.67;14.83;;;;;;;3.47;60.98;101540.88;5057566;28;20207;-82
2022/03/23 06:16:08;;;;;;;15.10;13.80;;;;;;;3.53;60.73;101530.75;5057467;28;20199;-81
2022/03/23 06:18:37;;;;;;;15.27;13.87;;;;;;;3.62;60.14;101532.72;5055701;28;20319;-80
2022/03/23 06:21:10;;;;;;;15.03;13.73;;;;;;;3.73;59.76;101559.69;5056672;28;20211;-82
2022/03/23 06:23:40;;;;;;;15.53;14.03;;;;;;;3.83;59.04;101587.53;5056304;28;20671;-81
2022/03/23 06:26:11;;;;;;;16.13;14.50;;;;;;;3.91;58.76;101601.50;5057116;28;20642;-82
2022/03/23 06:28:43;;;;;;;16.50;14.87;;;;;;;4.01;58.71;101609.53;5056663;28;20249;-80
2022/03/23 06:31:14;;;;;;;15.57;14.20;;;;;;;4.08;58.12;101614.88;5056265;28;20202;-82
2022/03/23 06:33:45;;;;;;;17.57;15.67;;;;;;;4.18;58.78;101640.13;5056532;28;20216;-82
2022/03/23 06:36:15;;;;;;;15.83;14.43;;;;;;;4.26;58.20;101642.94;5057233;28;20197;-81
2022/03/23 06:38:44;;;;;;;16.90;14.97;;;;;;;4.33;57.64;101649.13;5056752;28;20223;-81
2022/03/23 06:41:11;;;;;;;17.10;15.23;;;;;;;4.27;57.54;101680.84;5056239;28;20208;-80
2022/03/23 06:43:38;;;;;;;16.43;15.10;;;;;;;4.36;57.25;101683.69;5046364;28;20200;-81
2022/03/23 06:46:04;;;;;;;18.07;16.23;;;;;;;4.45;58.03;101675.28;5047089;28;20208;-80
2022/03/23 06:48:31;;;;;;;16.93;15.37;;;;;;;4.55;57.13;101682.44;5048111;28;20712;-78
2022/03/23 06:50:57;;;;;;;16.40;14.93;;;;;;;4.62;58.51;101667.97;5059236;28;20212;-80
2022/03/23 06:53:24;;;;;;;17.00;15.53;;;;;;;4.70;57.20;101679.38;5060469;28;20355;-79
2022/03/23 06:55:52;;;;;;;17.40;15.73;;;;;;;4.72;56.99;101685.47;5063999;28;20205;-78
2022/03/23 06:58:18;;;;;;;16.60;14.87;;;;;;;4.76;56.88;101702.81;5063321;28;20231;-80
2022/03/23 07:00:45;;;;;;;16.47;15.07;;;;;;;4.60;56.85;101712.72;5063265;28;20220;-80
2022/03/23 07:03:11;;;;;;;18.43;15.73;;;;;;;4.71;57.35;101701.81;5060782;28;20209;-80
2022/03/23 07:05:38;;;;;;;18.93;16.17;;;;;;;4.85;59.02;101668.53;5046670;28;20255;-80
2022/03/23 07:10:48;;;;;;;19.23;15.87;;;;;;;5.13;58.60;101658.84;5049736;28;20197;-81
2022/03/23 07:13:16;;;;;;;18.00;15.47;;;;;;;5.21;58.51;101656.44;5045611;28;20258;-81
2022/03/23 07:15:44;;;;;;;16.70;15.30;;;;;;;5.10;58.17;101675.19;5048072;28;20202;-81
2022/03/23 07:18:10;;;;;;;16.60;15.00;;;;;;;5.08;58.73;101670.81;5047936;28;20315;-82
2022/03/23 07:20:37;;;;;;;17.53;15.87;;;;;;;5.14;58.63;101666.63;5047318;28;20734;-81
2022/03/23 07:23:03;;;;;;;17.93;16.40;;;;;;;5.21;59.21;101652.09;5046899;28;20881;-82
2022/03/23 07:25:30;;;;;;;18.57;16.93;;;;;;;5.29;59.70;101639.34;5047270;28;20245;-82
2022/03/23 07:27:56;;;;;;;20.13;18.17;;;;;;;5.35;59.67;101631.72;5045079;28;20269;-82
2022/03/23 07:30:26;;;;;;;21.43;16.63;;;;;;;5.36;59.79;101634.34;5044151;28;20289;-79
2022/03/23 07:32:53;;;;;;;19.43;17.30;;;;;;;5.50;59.18;101642.41;5047620;28;20262;-82
2022/03/23 07:35:20;;;;;;;18.87;17.27;;;;;;;5.67;59.43;101658.31;5046663;28;20206;-83
2022/03/23 07:38:19;;;;;;;20.47;17.53;;;;;;;5.82;59.34;101652.56;5047346;28;20275;-82
2022/03/23 07:44:01;;;;;;;19.70;17.63;;;;;;;6.10;58.91;101656.59;5048271;28;20228;-81
2022/03/23 07:46:30;;;;;;;21.63;19.67;;;;;;;6.16;60.02;101654.13;5051417;28;20258;-80
2022/03/23 07:48:57;;;;;;;23.20;17.80;;;;;;;6.24;60.02;101640.41;5046088;28;20198;-80
2022/03/23 07:51:23;;;;;;;22.73;18.53;;;;;;;6.35;61.21;101624.22;5046547;28;20688;-83
2022/03/23 07:53:49;;;;;;;21.57;19.47;;;;;;;6.38;62.98;101601.78;5046243;28;20667;-80
2022/03/23 07:56:16;;;;;;;30.20;27.33;;;;;;;6.42;63.72;101555.19;5045599;28;20855;-79
2022/03/23 07:58:42;;;;;;;22.53;20.30;;;;;;;6.41;66.44;101493.78;5043597;28;20278;-81
2022/03/23 08:01:08;;;;;;;21.17;19.27;;;;;;;6.48;64.83;101482.66;5045921;28;20193;-80
2022/03/23 08:03:36;;;;;;;21.97;19.67;;;;;;;6.52;65.61;101481.84;5046185;28;20207;-80
2022/03/23 08:06:06;;;;;;;20.27;18.30;;;;;;;6.57;65.85;101474.13;5046345;28;20634;-80
2022/03/23 08:08:32;;;;;;;21.30;19.03;;;;;;;6.64;65.12;101495.81;5048439;28;20275;-82
2022/03/23 08:10:59;;;;;;;27.13;20.60;;;;;;;6.64;66.98;101494.13;5046736;28;20206;-81
2022/03/23 08:13:27;;;;;;;21.97;19.70;;;;;;;6.51;67.57;101456.75;5044959;28;20269;-81
2022/03/23 08:15:53;;;;;;;21.53;19.40;;;;;;;6.45;67.74;101453.22;5046740;28;20210;-81
2022/03/23 08:18:21;;;;;;;22.17;20.03;;;;;;;6.34;66.93;101469.50;5045072;28;20654;-81
2022/03/23 08:20:49;;;;;;;21.37;19.37;;;;;;;6.32;64.45;101525.66;5044253;28;20198;-80
2022/03/23 08:23:15;;;;;;;20.97;18.97;;;;;;;6.40;64.04;101559.44;5045684;28;20197;-82
2022/03/23 08:25:42;;;;;;;20.43;18.10;;;;;;;6.47;57.79;101682.34;5046277;28;20285;-82
2022/03/23 08:28:09;;;;;;;18.80;17.13;;;;;;;6.62;59.93;101728.41;5046594;28;20225;-79
2022/03/23 08:30:37;;;;;;;20.73;18.63;;;;;;;6.72;61.37;101689.72;5045480;28;20312;-80
2022/03/23 08:33:03;;;;;;;18.67;16.90;;;;;;;6.86;58.11;101702.91;5046086;28;20203;-81
2022/03/23 08:35:30;;;;;;;19.20;17.50;;;;;;;7.02;58.75;101747.31;5046193;28;20663;-80
2022/03/23 08:37:58;;;;;;;18.60;16.97;;;;;;;7.14;55.07;101796.84;5047575;28;20225;-81
2022/03/23 08:40:25;;;;;;;19.67;16.93;;;;;;;7.25;55.12;101847.22;5044101;28;20210;-81
2022/03/23 08:42:51;;;;;;;19.20;17.37;;;;;;;7.31;54.84;101899.31;5045069;28;20198;-80
2022/03/23 08:45:18;;;;;;;18.17;16.60;;;;;;;7.43;52.70;101902.94;5045237;28;20660;-80
2022/03/23 08:47:47;;;;;;;17.97;16.47;;;;;;;7.48;51.95;101981.84;5043905;28;20233;-80
2022/03/23 08:50:13;;;;;;;18.03;16.53;;;;;;;7.51;53.00;101963.72;5045163;28;20240;-82
2022/03/23 08:52:41;;;;;;;19.10;17.27;;;;;;;7.59;51.08;101940.47;5045498;28;20198;-82
2022/03/23 08:55:13;;;;;;;19.50;17.57;;;;;;;7.72;53.25;101971.91;5043311;28;20202;-81
2022/03/23 08:57:40;;;;;;;19.77;16.47;;;;;;;7.84;54.31;101944.38;5044476;28;20221;-80
2022/03/23 09:00:08;;;;;;;20.87;18.73;;;;;;;8.00;54.87;101911.69;5043399;28;20217;-80
2022/03/23 09:02:34;;;;;;;20.70;18.47;;;;;;;8.12;55.35;101878.06;5046161;28;20201;-81
2022/03/23 09:05:00;;;;;;;20.47;18.70;;;;;;;8.28;55.18;101872.22;5041574;28;20197;-80
2022/03/23 09:07:27;;;;;;;21.13;19.00;;;;;;;8.41;53.93;101894.13;5047154;28;20261;-79
2022/03/23 09:09:53;;;;;;;23.07;17.40;;;;;;;8.51;52.13;101926.34;5046734;28;20244;-81
2022/03/23 09:12:21;;;;;;;24.80;19.50;;;;;;;8.61;53.60;101961.19;5047324;28;20206;-79
2022/03/23 09:14:47;;;;;;;25.37;20.03;;;;;;;8.68;54.58;101944.75;5045895;28;20263;-81
2022/03/23 09:17:14;;;;;;;26.80;18.93;;;;;;;8.78;55.03;101911.91;5044118;28;20222;-80
2022/03/23 09:19:40;;;;;;;25.77;19.87;;;;;;;8.82;54.26;101906.78;5044641;28;20248;-81
2022/03/23 09:22:07;;;;;;;27.40;18.60;;;;;;;8.94;53.86;101908.66;5045784;28;20205;-82
2022/03/23 09:24:34;;;;;;;25.97;16.93;;;;;;;8.98;50.56;101983.38;5044465;28;20787;-81
2022/03/23 09:27:00;;;;;;;21.57;18.80;;;;;;;9.06;51.40;102019.94;5045540;28;20213;-80
2022/03/23 09:29:28;;;;;;;23.13;17.87;;;;;;;9.06;52.09;102007.78;5048368;28;20224;-81
2022/03/23 09:31:55;;;;;;;28.33;18.33;;;;;;;9.12;51.00;102002.63;5043619;28;20194;-80
2022/03/23 09:34:21;;;;;;;26.40;18.13;;;;;;;9.17;50.59;102046.09;5043758;28;20202;-80
2022/03/23 09:39:32;;;;;;;23.60;17.70;;;;;;;9.37;49.33;102070.66;5044914;28;20232;-80
2022/03/23 09:41:59;;;;;;;20.07;17.83;;;;;;;9.48;48.83;102089.94;5044767;28;20627;-83
2022/03/23 09:44:29;;;;;;;19.13;17.27;;;;;;;9.64;49.26;102109.25;5045916;28;20231;-81
2022/03/23 09:46:57;;;;;;;21.77;18.20;;;;;;;9.67;47.60;102132.75;5044511;28;20254;-82
2022/03/23 09:49:24;;;;;;;24.80;18.60;;;;;;;9.71;48.75;102151.91;5044691;28;20201;-82
2022/03/23 09:51:53;;;;;;;19.80;17.80;;;;;;;9.80;46.98;102151.16;5045500;28;20248;-81
2022/03/23 09:54:21;;;;;;;18.07;16.27;;;;;;;9.88;46.07;102180.81;5045742;28;20267;-81
2022/03/23 09:56:47;;;;;;;18.10;16.53;;;;;;;9.96;44.79;102253.94;5047170;28;20301;-81
2022/03/23 09:59:14;;;;;;;19.70;17.33;;;;;;;10.08;44.63;102274.97;5048204;28;20247;-81
2022/03/23 10:02:36;;;;;;;19.37;17.57;;;;;;;10.30;44.98;102260.47;5048950;28;20275;-81
2022/03/23 10:05:41;;;;;;;19.13;17.17;;;;;;;10.44;46.06;102268.47;5048656;28;20201;-80
2022/03/23 10:08:28;;;;;;;17.83;16.10;;;;;;;10.57;43.85;102298.22;5051041;28;20245;-80
2022/03/23 10:11:50;;;;;;;21.53;17.93;;;;;;;10.67;41.94;102320.94;5048518;28;20198;-81
2022/03/23 10:15:19;;;;;;;18.60;16.90;;;;;;;10.78;42.57;102355.00;5048453;28;20574;-82
2022/03/23 10:18:11;;;;;;;17.67;16.07;;;;;;;10.96;40.19;102410.09;5049113;28;20763;-80
2022/03/23 10:20:38;;;;;;;19.43;17.37;;;;;;;11.06;42.13;102411.03;5050049;28;20207;-82
2022/03/23 10:23:07;;;;;;;21.07;18.87;;;;;;;11.09;41.80;102398.91;5047112;28;20297;-81
2022/03/23 10:25:33;;;;;;;20.37;18.40;;;;;;;11.11;42.73;102370.16;5048309;28;20190;-80
2022/03/23 10:27:59;;;;;;;19.60;17.77;;;;;;;11.20;42.04;102365.03;5048427;28;20249;-80
2022/03/23 10:30:33;;;;;;;21.20;19.17;;;;;;;11.27;43.07;102366.84;5046787;28;20233;-80
2022/03/23 10:33:01;;;;;;;21.10;18.73;;;;;;;11.37;43.06;102359.09;5049017;28;20195;-81
2022/03/23 10:35:36;;;;;;;19.00;17.50;;;;;;;11.41;43.04;102348.66;5048539;28;20206;-81
2022/03/23 10:38:11;;;;;;;20.50;18.43;;;;;;;11.50;41.48;102369.66;5048261;28;20784;-82
2022/03/23 10:40:38;;;;;;;19.43;17.63;;;;;;;11.61;41.98;102382.81;5048937;28;20272;-81
2022/03/23 10:43:04;;;;;;;19.77;17.37;;;;;;;11.74;40.76;102402.13;5046927;28;20249;-80
2022/03/23 10:45:32;;;;;;;21.43;19.27;;;;;;;11.85;42.23;102396.94;5048430;28;20199;-81
2022/03/23 10:48:10;;;;;;;21.60;19.33;;;;;;;11.91;42.15;102371.75;5046896;28;20233;-79
2022/03/23 10:50:37;;;;;;;21.47;19.40;;;;;;;12.02;41.45;102391.88;5048362;28;20219;-79
2022/03/23 10:53:06;;;;;;;20.20;18.40;;;;;;;12.12;40.55;102407.63;5047921;28;20663;-81
2022/03/23 10:55:36;;;;;;;21.33;18.60;;;;;;;12.22;39.87;102426.91;5047402;28;20657;-79
2022/03/23 10:58:21;;;;;;;20.03;18.13;;;;;;;12.22;39.75;102465.31;5047171;28;20277;-79
2022/03/23 11:00:49;;;;;;;20.57;18.77;;;;;;;12.29;39.72;102468.00;5048372;28;20211;-80
2022/03/23 11:03:17;;;;;;;20.33;17.93;;;;;;;12.42;39.93;102462.81;5047405;28;20194;-80
2022/03/23 11:05:47;;;;;;;22.57;19.23;;;;;;;12.64;41.06;102428.00;5046954;28;20246;-80
2022/03/23 11:08:15;;;;;;;21.90;19.90;;;;;;;12.81;40.50;102427.22;5049675;28;20284;-79
2022/03/23 11:16:13;;;;;;;19.70;18.00;;;;;;;13.41;38.00;102534.94;5047319;28;20211;-79
2022/03/23 11:18:41;;;;;;;22.10;19.97;;;;;;;13.68;38.60;102511.41;5045949;28;20567;-81
2022/03/23 11:21:08;;;;;;;25.20;18.90;;;;;;;13.94;37.38;102539.44;5044934;28;20889;-81
2022/03/23 11:23:36;;;;;;;20.63;18.73;;;;;;;14.19;36.12;102558.72;5046781;28;20680;-80
2022/03/23 11:26:05;;;;;;;20.07;18.27;;;;;;;14.39;35.51;102636.63;5046483;28;20284;-82
2022/03/23 11:28:35;;;;;;;21.13;19.13;;;;;;;14.63;35.19;102648.97;5044778;28;20218;-81
2022/03/23 11:31:04;;;;;;;21.27;19.13;;;;;;;14.83;34.45;102664.72;5046259;28;20259;-79
2022/03/23 11:33:33;;;;;;;21.07;19.20;;;;;;;15.21;34.53;102677.78;5047059;28;20238;-81
2022/03/23 11:36:03;;;;;;;20.40;18.80;;;;;;;15.46;32.85;102718.09;5045629;28;20205;-80
2022/03/23 11:38:30;;;;;;;22.20;20.40;;;;;;;15.80;31.53;102775.06;5044587;28;20886;-81
2022/03/23 11:40:57;;;;;;;20.20;18.40;;;;;;;16.78;30.31;102848.41;5045467;28;20244;-78
2022/03/23 11:43:26;;;;;;;19.43;17.90;;;;;;;18.22;28.11;102901.78;5045371;28;20197;-81
2022/03/23 11:45:54;;;;;;;20.80;19.17;;;;;;;19.80;25.38;102988.75;5035584;28;20256;-82
2022/03/23 11:48:34;;;;;;;20.10;18.23;;;;;;;21.22;24.71;103069.19;5036124;28;20230;-81
2022/03/23 11:51:16;;;;;;;20.07;18.43;;;;;;;22.89;23.04;103123.69;5037013;28;20194;-81
2022/03/23 11:53:54;;;;;;;18.93;17.60;;;;;;;24.20;20.11;103200.69;5036072;28;20209;-80